Pagrindinis puslapis
METAR-TAF:

METAR-TAF

Oro uostai :

Independence Municipal Airport

Independence, Ajova, Jungtinės Amerikos Valstijos

platuma: 42-27N, ilguma: 091-56W, Aukštis: 298 m

Dabartinis oras

Ataskaita buvo paskelbta 29 minutes, ne 11:55 UTC
Vėjas 10 kt iš Šiaurės Vakarų
Temperatūra -1°C
Drėgmė 93%
Slėgis 1013 hPa
Matomumas: 8.0 km
Apsiniaukę ne aukštis 600 ft
rūkana

METAR: KIIB 251155Z AUTO 31010KT 5SM BR OVC006 M01/M02 A2990 RMK AO2 T10151022

Laikas: 06:24 (12:24 UTC)


TAF: trūkstamas

Orai ataskaitas ir orų prognozės (METAR, TAF).

turimą stotys yra geltonos ir raudonos taškus žemėlapyje.

Perkelti pele per norėdami pamatyti stoties vardą.

Tada spustelėkite, norėdami matyti oro stebėjimo ir prognozės.

Norėdami pakeisti žemėlapį: spustelėkite ant žalios mygtukų su juodo kryžiaus žemyn,; žalią mygtuką su brūkšneliu, jei norite nutolinti; arba žalių rodyklių gretimoms žemėlapius.


METAR-TAF: